createdAt,value
2022-10-05T00:00:16.323Z,80.83
2022-10-05T00:01:16.328Z,80.52
2022-10-05T00:02:16.316Z,81.13
2022-10-05T00:03:16.310Z,80.93
2022-10-05T00:04:16.386Z,80.83
2022-10-05T00:05:16.328Z,80.83
2022-10-05T00:06:16.265Z,80.69
2022-10-05T00:07:16.241Z,80.18
2022-10-05T00:08:16.241Z,80.42
2022-10-05T00:09:16.234Z,80.73
2022-10-05T00:10:16.259Z,80.42
2022-10-05T00:11:16.207Z,80.79
2022-10-05T00:12:16.202Z,80.99
2022-10-05T00:13:16.179Z,80.29
2022-10-05T00:14:16.171Z,80.59
2022-10-05T00:15:16.200Z,80.59
2022-10-05T00:16:16.216Z,80.49
2022-10-05T00:17:16.155Z,80.69
2022-10-05T00:18:16.136Z,80.29
2022-10-05T00:19:16.113Z,80.79
2022-10-05T00:20:16.107Z,80.93
2022-10-05T00:21:16.089Z,81.40
2022-10-05T00:22:16.110Z,80.90
2022-10-05T00:23:16.072Z,80.99
2022-10-05T00:24:16.065Z,80.49
2022-10-05T00:25:16.045Z,80.49
2022-10-05T00:26:16.034Z,80.18
2022-10-05T00:27:16.029Z,80.18
2022-10-05T00:28:16.117Z,80.59
2022-10-05T00:29:16.029Z,80.32
2022-10-05T00:30:15.998Z,80.32
2022-10-05T00:31:16.041Z,80.02
2022-10-05T00:32:15.975Z,80.42
2022-10-05T00:33:15.967Z,80.63
2022-10-05T00:34:15.972Z,80.32
2022-10-05T00:35:15.940Z,80.63
2022-10-05T00:36:15.937Z,80.52
2022-10-05T00:37:15.920Z,80.52
2022-10-05T00:38:15.927Z,80.52
2022-10-05T00:39:15.903Z,80.66
2022-10-05T00:40:15.951Z,80.56
2022-10-05T00:41:15.892Z,81.48
2022-10-05T00:42:15.857Z,81.68
2022-10-05T00:43:15.878Z,81.58
2022-10-05T00:44:15.899Z,81.07
2022-10-05T00:45:15.841Z,81.17
2022-10-05T00:46:15.923Z,81.07
2022-10-05T00:47:15.831Z,81.58
2022-10-05T00:48:15.800Z,81.58
2022-10-05T00:49:15.787Z,81.48
2022-10-05T00:50:15.807Z,81.48
2022-10-05T00:51:15.767Z,81.58
2022-10-05T00:52:15.779Z,81.58
2022-10-05T00:53:15.742Z,81.38
2022-10-05T00:54:18.366Z,81.27
2022-10-05T00:55:15.735Z,81.58
2022-10-05T00:56:15.736Z,81.17
2022-10-05T00:57:15.752Z,80.97
2022-10-05T00:58:15.695Z,81.38
2022-10-05T00:59:15.686Z,81.27
2022-10-05T01:00:15.675Z,81.58
2022-10-05T01:01:15.705Z,81.38
2022-10-05T01:02:15.700Z,81.48
2022-10-05T01:03:15.678Z,81.58
2022-10-05T01:04:15.641Z,81.07
2022-10-05T01:05:15.658Z,81.07
2022-10-05T01:06:15.611Z,81.07
2022-10-05T01:07:15.612Z,81.07
2022-10-05T01:08:15.593Z,80.66
2022-10-05T01:09:15.572Z,80.56
2022-10-05T01:10:15.570Z,81.17
2022-10-05T01:11:15.571Z,80.91
2022-10-05T01:12:15.556Z,81.21
2022-10-05T01:13:15.553Z,81.11
2022-10-05T01:14:15.534Z,81.72
2022-10-05T01:15:15.526Z,81.72
2022-10-05T01:16:15.557Z,81.68
2022-10-05T01:17:15.490Z,81.72
2022-10-05T01:18:15.509Z,81.58
2022-10-05T01:19:15.482Z,81.72
2022-10-05T01:20:15.461Z,81.48
2022-10-05T01:21:15.456Z,81.27
2022-10-05T01:22:15.432Z,81.68
2022-10-05T01:23:15.427Z,81.38
2022-10-05T01:24:15.431Z,81.58
2022-10-05T01:25:15.415Z,81.58
2022-10-05T01:26:15.390Z,81.38
2022-10-05T01:27:15.394Z,81.48
2022-10-05T01:28:15.464Z,81.68
2022-10-05T01:29:15.373Z,81.58
2022-10-05T01:30:15.350Z,81.48
2022-10-05T01:31:15.388Z,81.17
2022-10-05T01:32:15.326Z,81.17
2022-10-05T01:33:15.354Z,80.66
2022-10-05T01:34:15.324Z,80.60
2022-10-05T01:35:15.313Z,81.27
2022-10-05T01:36:15.301Z,81.11
2022-10-05T01:37:15.287Z,81.01
2022-10-05T01:38:15.288Z,81.31
2022-10-05T01:39:15.265Z,81.31
2022-10-05T01:40:15.255Z,81.72
2022-10-05T01:41:15.239Z,81.72
2022-10-05T01:42:15.237Z,81.72
2022-10-05T01:43:15.218Z,81.52
2022-10-05T01:44:15.196Z,81.41
2022-10-05T01:45:15.219Z,81.72
2022-10-05T01:46:15.201Z,81.93
2022-10-05T01:47:15.188Z,82.13
2022-10-05T01:48:16.171Z,81.72
2022-10-05T01:49:15.168Z,82.13
2022-10-05T01:50:15.140Z,82.03
2022-10-05T01:51:15.169Z,82.33
2022-10-05T01:52:15.125Z,82.23
2022-10-05T01:53:15.131Z,81.62
2022-10-05T01:54:15.118Z,81.52
2022-10-05T01:55:15.071Z,81.41
2022-10-05T01:56:15.072Z,81.82
2022-10-05T01:57:15.055Z,81.52
2022-10-05T01:58:15.051Z,81.62
2022-10-05T01:59:15.050Z,81.41
2022-10-05T02:00:15.036Z,81.62
2022-10-05T02:01:15.041Z,81.72
2022-10-05T02:02:15.086Z,81.72
2022-10-05T02:03:14.989Z,81.31
2022-10-05T02:04:30.823Z,81.72
2022-10-05T02:05:16.013Z,81.76
2022-10-05T02:06:14.980Z,81.76
2022-10-05T02:07:14.967Z,81.45
2022-10-05T02:08:14.942Z,82.03
2022-10-05T02:09:14.928Z,81.72
2022-10-05T02:10:14.937Z,81.62
2022-10-05T02:11:14.922Z,81.45
2022-10-05T02:12:14.904Z,81.66
2022-10-05T02:13:14.890Z,82.17
2022-10-05T02:14:14.870Z,83.09
2022-10-05T02:15:14.884Z,82.17
2022-10-05T02:16:14.961Z,82.07
2022-10-05T02:17:14.853Z,82.03
2022-10-05T02:18:14.845Z,81.86
2022-10-05T02:19:14.848Z,81.96
2022-10-05T02:20:14.816Z,81.76
2022-10-05T02:21:14.809Z,81.76
2022-10-05T02:22:14.800Z,82.57
2022-10-05T02:23:14.787Z,82.07
2022-10-05T02:24:14.834Z,81.76
2022-10-05T02:25:14.757Z,82.07
2022-10-05T02:26:14.740Z,81.76
2022-10-05T02:27:14.733Z,81.66
2022-10-05T02:28:14.754Z,81.76
2022-10-05T02:29:14.718Z,81.76
2022-10-05T02:30:16.671Z,81.80
2022-10-05T02:31:14.734Z,82.47
2022-10-05T02:32:14.675Z,82.78
2022-10-05T02:33:14.677Z,82.37
2022-10-05T02:34:14.655Z,82.68
2022-10-05T02:35:14.676Z,82.98
2022-10-05T02:36:14.665Z,82.23
2022-10-05T02:37:14.623Z,81.62
2022-10-05T02:38:14.633Z,81.52
2022-10-05T02:39:14.676Z,81.76
2022-10-05T02:40:14.592Z,80.94
2022-10-05T02:41:14.599Z,81.66
2022-10-05T02:42:14.569Z,81.56
2022-10-05T02:43:14.597Z,82.27
2022-10-05T02:44:14.558Z,81.96
2022-10-05T02:45:14.539Z,82.07
2022-10-05T02:46:14.697Z,82.17
2022-10-05T02:47:14.522Z,81.56
2022-10-05T02:48:14.540Z,81.96
2022-10-05T02:49:14.488Z,82.27
2022-10-05T02:50:14.501Z,82.17
2022-10-05T02:51:14.474Z,81.96
2022-10-05T02:52:14.459Z,82.07
2022-10-05T02:53:14.449Z,81.96
2022-10-05T02:54:14.462Z,82.17
2022-10-05T02:55:14.439Z,81.72
2022-10-05T02:56:14.421Z,81.66
2022-10-05T02:57:14.418Z,82.13
2022-10-05T02:58:14.409Z,81.72
2022-10-05T02:59:14.417Z,81.76
2022-10-05T03:00:14.399Z,81.62
2022-10-05T03:01:14.437Z,81.56
2022-10-05T03:02:14.432Z,81.62
2022-10-05T03:03:14.344Z,82.13
2022-10-05T03:04:14.345Z,81.82
2022-10-05T03:05:14.352Z,81.72
2022-10-05T03:06:14.305Z,81.56
2022-10-05T03:07:14.338Z,81.72
2022-10-05T03:08:14.300Z,81.66
2022-10-05T03:09:14.284Z,81.15
2022-10-05T03:10:14.294Z,81.66
2022-10-05T03:11:14.312Z,80.84
2022-10-05T03:12:14.257Z,81.04
2022-10-05T03:13:14.245Z,81.15
2022-10-05T03:14:14.235Z,81.76
2022-10-05T03:15:14.229Z,81.66
2022-10-05T03:16:14.384Z,81.66
2022-10-05T03:17:14.203Z,81.66
2022-10-05T03:18:14.180Z,82.00
2022-10-05T03:19:14.172Z,82.27
2022-10-05T03:20:14.163Z,81.76
2022-10-05T03:21:14.394Z,82.07
2022-10-05T03:22:14.128Z,82.10
2022-10-05T03:23:14.134Z,82.37
2022-10-05T03:24:14.110Z,82.07
2022-10-05T03:25:14.109Z,82.17
2022-10-05T03:26:14.092Z,82.17
2022-10-05T03:27:14.128Z,81.96
2022-10-05T03:28:14.138Z,81.76
2022-10-05T03:29:14.071Z,81.76
2022-10-05T03:30:14.046Z,81.96
2022-10-05T03:31:14.090Z,81.56
2022-10-05T03:32:14.047Z,81.56
2022-10-05T03:33:14.013Z,81.72
2022-10-05T03:34:14.009Z,81.66
2022-10-05T03:35:13.989Z,81.15
2022-10-05T03:36:13.993Z,81.45
2022-10-05T03:37:14.003Z,81.45
2022-10-05T03:38:13.958Z,81.66
2022-10-05T03:39:13.955Z,81.52
2022-10-05T03:40:13.937Z,80.80
2022-10-05T03:41:13.931Z,81.41
2022-10-05T03:42:13.926Z,81.45
2022-10-05T03:43:13.933Z,81.11
2022-10-05T03:44:13.904Z,81.25
2022-10-05T03:45:13.884Z,81.35
2022-10-05T03:46:13.962Z,81.66
2022-10-05T03:47:13.867Z,81.35
2022-10-05T03:48:13.853Z,81.56
2022-10-05T03:49:13.878Z,81.66
2022-10-05T03:50:13.835Z,81.45
2022-10-05T03:51:13.828Z,81.56
2022-10-05T03:52:13.815Z,81.45
2022-10-05T03:53:21.560Z,81.59
2022-10-05T03:54:13.794Z,81.56
2022-10-05T03:55:13.799Z,81.86
2022-10-05T03:56:13.770Z,81.70
2022-10-05T03:57:13.753Z,81.66
2022-10-05T03:58:13.752Z,81.56
2022-10-05T03:59:13.772Z,81.96
2022-10-05T04:00:13.721Z,81.86
2022-10-05T04:01:13.747Z,81.76
2022-10-05T04:02:13.719Z,81.66
2022-10-05T04:03:13.691Z,81.49
2022-10-05T04:04:13.715Z,81.66
2022-10-05T04:05:13.675Z,81.66
2022-10-05T04:06:13.666Z,81.56
2022-10-05T04:07:13.655Z,81.70
2022-10-05T04:08:13.635Z,81.66
2022-10-05T04:09:13.624Z,81.96
2022-10-05T04:10:13.637Z,81.70
2022-10-05T04:11:13.605Z,82.00
2022-10-05T04:12:13.596Z,82.00
2022-10-05T04:13:13.584Z,81.80
2022-10-05T04:14:13.575Z,81.80
2022-10-05T04:15:18.047Z,81.80
2022-10-05T04:16:14.663Z,82.00
2022-10-05T04:17:13.547Z,82.10
2022-10-05T04:18:13.532Z,82.00
2022-10-05T04:19:13.526Z,82.10
2022-10-05T04:20:13.521Z,82.10
2022-10-05T04:21:13.508Z,82.41
2022-10-05T04:22:13.493Z,81.70
2022-10-05T04:23:13.478Z,81.90
2022-10-05T04:24:13.461Z,82.82
2022-10-05T04:25:13.461Z,82.75
2022-10-05T04:26:13.469Z,83.06
2022-10-05T04:27:13.440Z,82.41
2022-10-05T04:28:13.467Z,82.92
2022-10-05T04:29:13.419Z,82.45
2022-10-05T04:30:13.448Z,82.65
2022-10-05T04:31:13.433Z,82.35
2022-10-05T04:32:13.400Z,83.26
2022-10-05T04:33:13.365Z,83.12
2022-10-05T04:34:13.369Z,82.65
2022-10-05T04:35:13.359Z,82.41
2022-10-05T04:36:13.364Z,82.45
2022-10-05T04:37:13.329Z,82.65
2022-10-05T04:38:13.318Z,83.37
2022-10-05T04:39:13.324Z,83.10
2022-10-05T04:40:13.303Z,83.81
2022-10-05T04:41:13.385Z,83.78
2022-10-05T04:42:13.381Z,83.57
2022-10-05T04:43:13.269Z,83.57
2022-10-05T04:44:13.260Z,83.67
2022-10-05T04:45:13.274Z,83.37
2022-10-05T04:46:13.318Z,83.26
2022-10-05T04:47:13.284Z,83.23
2022-10-05T04:48:13.213Z,83.26
2022-10-05T04:49:13.204Z,82.96
2022-10-05T04:50:13.186Z,83.23
2022-10-05T04:51:13.179Z,83.12
2022-10-05T04:52:13.189Z,83.57
2022-10-05T04:53:13.170Z,83.16
2022-10-05T04:54:13.154Z,83.12
2022-10-05T04:55:13.152Z,83.02
2022-10-05T04:56:13.135Z,82.92
2022-10-05T04:57:13.119Z,82.71
2022-10-05T04:58:13.133Z,82.61
2022-10-05T04:59:13.095Z,83.02
2022-10-05T05:00:13.087Z,82.92
2022-10-05T05:01:13.161Z,82.61
2022-10-05T05:02:13.061Z,82.71
2022-10-05T05:03:13.075Z,83.12
2022-10-05T05:04:13.145Z,82.92
2022-10-05T05:05:13.028Z,82.92
2022-10-05T05:06:17.188Z,83.23
2022-10-05T05:07:13.006Z,83.02
2022-10-05T05:08:12.994Z,83.33
2022-10-05T05:09:13.015Z,83.23
2022-10-05T05:10:12.974Z,83.12
2022-10-05T05:11:16.776Z,83.12
2022-10-05T05:12:12.952Z,83.12
2022-10-05T05:13:12.954Z,83.43
2022-10-05T05:14:12.965Z,82.92
2022-10-05T05:15:12.931Z,82.41
2022-10-05T05:16:13.010Z,83.02
2022-10-05T05:17:13.373Z,82.41
2022-10-05T05:18:12.900Z,82.71
2022-10-05T05:19:12.892Z,82.61
2022-10-05T05:20:12.891Z,82.71
2022-10-05T05:21:12.853Z,81.80
2022-10-05T05:22:12.850Z,82.82
2022-10-05T05:23:12.839Z,82.71
2022-10-05T05:24:12.833Z,83.33
2022-10-05T05:25:12.848Z,83.33
2022-10-05T05:26:12.819Z,83.26
2022-10-05T05:27:12.792Z,82.65
2022-10-05T05:28:12.879Z,82.45
2022-10-05T05:29:12.776Z,83.26
2022-10-05T05:30:12.770Z,83.78
2022-10-05T05:31:12.801Z,83.67
2022-10-05T05:32:12.750Z,83.78
2022-10-05T05:33:12.731Z,83.33
2022-10-05T05:34:12.733Z,82.92
2022-10-05T05:35:12.725Z,82.65
2022-10-05T05:36:12.714Z,83.26
2022-10-05T05:37:12.696Z,83.02
2022-10-05T05:38:12.703Z,83.23
2022-10-05T05:39:12.702Z,83.63
2022-10-05T05:40:12.661Z,82.92
2022-10-05T05:41:12.650Z,83.02
2022-10-05T05:42:12.847Z,83.02
2022-10-05T05:43:12.622Z,83.12
2022-10-05T05:44:12.614Z,83.02
2022-10-05T05:45:12.594Z,82.92
2022-10-05T05:46:12.622Z,83.12
2022-10-05T05:47:13.051Z,83.12
2022-10-05T05:48:12.583Z,83.12
2022-10-05T05:49:12.565Z,82.68
2022-10-05T05:50:12.546Z,82.61
2022-10-05T05:51:12.563Z,82.71
2022-10-05T05:52:12.551Z,82.68
2022-10-05T05:53:12.527Z,82.78
2022-10-05T05:54:12.510Z,83.02
2022-10-05T05:55:12.503Z,82.82
2022-10-05T05:56:12.490Z,82.92
2022-10-05T05:57:12.477Z,82.71
2022-10-05T05:58:12.464Z,82.61
2022-10-05T05:59:12.468Z,83.23
2022-10-05T06:00:12.448Z,82.71
2022-10-05T06:01:30.641Z,82.92
2022-10-05T06:02:13.556Z,83.12
2022-10-05T06:03:12.543Z,82.71
2022-10-05T06:04:12.425Z,82.82
2022-10-05T06:05:12.388Z,83.12
2022-10-05T06:06:12.373Z,83.33
2022-10-05T06:07:12.393Z,82.82
2022-10-05T06:08:12.357Z,82.68
2022-10-05T06:09:12.343Z,83.23
2022-10-05T06:10:12.733Z,82.68
2022-10-05T06:11:12.321Z,82.78
2022-10-05T06:12:12.335Z,82.88
2022-10-05T06:13:12.299Z,82.98
2022-10-05T06:14:12.302Z,82.07
2022-10-05T06:15:12.297Z,82.37
2022-10-05T06:16:12.314Z,82.27
2022-10-05T06:17:12.272Z,82.07
2022-10-05T06:18:12.257Z,82.07
2022-10-05T06:19:12.250Z,81.82
2022-10-05T06:20:12.225Z,81.93
2022-10-05T06:21:12.225Z,82.13
2022-10-05T06:22:12.203Z,81.62
2022-10-05T06:23:12.218Z,81.72
2022-10-05T06:24:12.207Z,81.62
2022-10-05T06:25:12.179Z,81.72
2022-10-05T06:26:12.160Z,82.03
2022-10-05T06:27:13.381Z,81.82
2022-10-05T06:28:12.300Z,81.72
2022-10-05T06:29:12.128Z,81.52
2022-10-05T06:30:12.138Z,81.11
2022-10-05T06:31:12.154Z,81.62
2022-10-05T06:32:12.104Z,81.68
2022-10-05T06:33:12.083Z,81.27
2022-10-05T06:34:12.079Z,81.27
2022-10-05T06:35:12.070Z,81.48
2022-10-05T06:36:12.072Z,81.17
2022-10-05T06:37:12.053Z,81.58
2022-10-05T06:38:12.039Z,82.66
2022-10-05T06:39:12.039Z,82.56
2022-10-05T06:40:12.056Z,82.35
2022-10-05T06:41:12.029Z,80.83
2022-10-05T06:42:11.992Z,80.99
2022-10-05T06:43:11.972Z,80.29
2022-10-05T06:44:11.976Z,79.88
2022-10-05T06:45:11.953Z,80.49
2022-10-05T06:46:11.998Z,80.29
2022-10-05T06:47:11.952Z,80.18
2022-10-05T06:48:11.929Z,79.27
2022-10-05T06:49:11.909Z,79.57
2022-10-05T06:50:11.904Z,79.57
2022-10-05T06:51:11.895Z,79.68
2022-10-05T06:52:11.906Z,79.88
2022-10-05T06:53:11.875Z,79.77
2022-10-05T06:54:11.862Z,79.57
2022-10-05T06:55:14.219Z,79.61
2022-10-05T06:56:11.838Z,79.61
2022-10-05T06:57:11.830Z,80.02
2022-10-05T06:58:11.829Z,79.61
2022-10-05T06:59:11.820Z,79.91
2022-10-05T07:00:11.794Z,79.71
2022-10-05T07:01:11.926Z,80.42
2022-10-05T07:02:12.061Z,80.18
2022-10-05T07:03:12.565Z,79.68
2022-10-05T07:04:11.758Z,79.47
2022-10-05T07:05:11.745Z,79.57
2022-10-05T07:06:11.721Z,79.37
2022-10-05T07:07:11.744Z,79.88
2022-10-05T07:08:11.708Z,79.57
2022-10-05T07:09:11.703Z,79.77
2022-10-05T07:10:11.685Z,79.27
2022-10-05T07:11:11.688Z,80.29
2022-10-05T07:12:11.711Z,79.88
2022-10-05T07:13:11.657Z,80.29
2022-10-05T07:14:11.636Z,80.24
2022-10-05T07:15:11.660Z,79.43
2022-10-05T07:16:11.643Z,79.74
2022-10-05T07:17:11.633Z,79.74
2022-10-05T07:18:11.602Z,79.84
2022-10-05T07:19:11.589Z,79.90
2022-10-05T07:20:11.585Z,78.58
2022-10-05T07:21:11.586Z,78.58
2022-10-05T07:22:11.562Z,78.89
2022-10-05T07:23:11.572Z,78.48
2022-10-05T07:24:11.538Z,78.89
2022-10-05T07:25:11.526Z,78.75
2022-10-05T07:26:11.515Z,77.94
2022-10-05T07:27:11.530Z,78.04
2022-10-05T07:28:11.552Z,77.73
2022-10-05T07:29:11.474Z,78.04
2022-10-05T07:30:11.470Z,77.94
2022-10-05T07:31:11.549Z,76.98
2022-10-05T07:32:11.457Z,77.39
2022-10-05T07:33:11.452Z,77.36
2022-10-05T07:34:11.490Z,76.78
2022-10-05T07:35:11.432Z,76.58
2022-10-05T07:36:11.416Z,76.24
2022-10-05T07:37:11.406Z,76.07
2022-10-05T07:38:11.384Z,76.28
2022-10-05T07:39:11.372Z,76.17
2022-10-05T07:40:11.373Z,76.14
2022-10-05T07:41:11.363Z,75.73
2022-10-05T07:42:11.337Z,75.73
2022-10-05T07:43:11.451Z,75.73
2022-10-05T07:44:12.961Z,74.92
2022-10-05T07:45:11.320Z,74.92
2022-10-05T07:46:11.415Z,75.02
2022-10-05T07:47:11.282Z,75.63
2022-10-05T07:48:11.268Z,75.32
2022-10-05T07:49:11.259Z,75.56
2022-10-05T07:50:11.259Z,76.28
2022-10-05T07:51:11.264Z,76.28
2022-10-05T07:52:11.238Z,76.51
2022-10-05T07:53:11.224Z,76.51
2022-10-05T07:54:11.201Z,76.61
2022-10-05T07:55:11.197Z,76.48
2022-10-05T07:56:11.190Z,76.58
2022-10-05T07:57:11.186Z,76.98
2022-10-05T07:58:11.182Z,76.28
2022-10-05T07:59:11.191Z,76.58
2022-10-05T08:00:11.139Z,76.44
2022-10-05T08:01:11.157Z,75.83
2022-10-05T08:02:11.242Z,75.83
2022-10-05T08:03:11.231Z,74.92
2022-10-05T08:04:11.109Z,74.68
2022-10-05T08:05:11.090Z,74.92
2022-10-05T08:06:11.097Z,74.82
2022-10-05T08:07:11.113Z,74.98
2022-10-05T08:08:13.190Z,75.09
2022-10-05T08:09:11.088Z,75.09
2022-10-05T08:10:11.046Z,74.65
2022-10-05T08:11:11.042Z,75.05
2022-10-05T08:12:11.047Z,75.05
2022-10-05T08:13:11.012Z,73.83
2022-10-05T08:14:11.006Z,74.54
2022-10-05T08:15:11.002Z,74.30
2022-10-05T08:16:11.051Z,73.80
2022-10-05T08:17:10.960Z,73.49
2022-10-05T08:18:10.973Z,73.25
2022-10-05T08:19:10.934Z,72.34
2022-10-05T08:20:10.933Z,72.45
2022-10-05T08:21:10.915Z,72.34
2022-10-05T08:22:10.912Z,73.05
2022-10-05T08:23:10.891Z,73.25
2022-10-05T08:24:10.905Z,71.80
2022-10-05T08:25:10.903Z,71.50
2022-10-05T08:26:10.858Z,71.44
2022-10-05T08:27:10.858Z,72.04
2022-10-05T08:28:10.952Z,71.94
2022-10-05T08:29:13.753Z,71.91
2022-10-05T08:30:10.815Z,71.00
2022-10-05T08:31:10.905Z,70.89
2022-10-05T08:32:10.809Z,71.30
2022-10-05T08:33:10.791Z,71.26
2022-10-05T08:34:10.778Z,71.20
2022-10-05T08:35:10.803Z,71.00
2022-10-05T08:36:10.759Z,71.20
2022-10-05T08:37:10.748Z,71.60
2022-10-05T08:38:10.742Z,71.16
2022-10-05T08:39:10.724Z,71.26
2022-10-05T08:40:10.733Z,71.16
2022-10-05T08:41:10.721Z,70.32
2022-10-05T08:42:10.685Z,70.18
2022-10-05T08:43:10.672Z,70.09
2022-10-05T08:44:10.675Z,69.42
2022-10-05T08:45:10.663Z,69.24
2022-10-05T08:46:10.747Z,69.21
2022-10-05T08:47:10.702Z,68.47
2022-10-05T08:48:10.628Z,67.56
2022-10-05T08:49:10.631Z,68.10
2022-10-05T08:50:10.620Z,68.51
2022-10-05T08:51:10.593Z,68.60
2022-10-05T08:52:11.118Z,68.91
2022-10-05T08:53:10.648Z,69.01
2022-10-05T08:54:10.580Z,68.71
2022-10-05T08:55:10.546Z,68.80
2022-10-05T08:56:10.586Z,68.60
2022-10-05T08:57:10.524Z,68.10
2022-10-05T08:58:10.533Z,68.00
2022-10-05T08:59:10.509Z,68.71
2022-10-05T09:00:10.528Z,68.10
2022-10-05T09:01:10.560Z,68.37
2022-10-05T09:02:10.547Z,68.47
2022-10-05T09:03:10.492Z,68.44
2022-10-05T09:04:10.451Z,67.76
2022-10-05T09:05:10.441Z,68.13
2022-10-05T09:06:10.443Z,67.90
2022-10-05T09:07:10.421Z,68.77
2022-10-05T09:08:10.432Z,68.71
2022-10-05T09:09:10.429Z,68.80
2022-10-05T09:10:10.382Z,68.91
2022-10-05T09:11:10.378Z,69.21
2022-10-05T09:12:10.377Z,69.11
2022-10-05T09:13:10.848Z,69.21
2022-10-05T09:14:10.342Z,69.42
2022-10-05T09:15:25.507Z,69.21
2022-10-05T09:16:11.388Z,69.42
2022-10-05T09:17:10.370Z,70.12
2022-10-05T09:18:10.301Z,70.02
2022-10-05T09:19:10.338Z,69.92
2022-10-05T09:20:10.274Z,69.62
2022-10-05T09:21:10.275Z,70.02
2022-10-05T09:22:10.253Z,70.22
2022-10-05T09:23:10.282Z,69.82
2022-10-05T09:24:10.236Z,70.25
2022-10-05T09:25:10.373Z,69.92
2022-10-05T09:26:10.231Z,70.02
2022-10-05T09:27:10.226Z,69.85
2022-10-05T09:28:10.220Z,69.75
2022-10-05T09:29:10.184Z,70.25
2022-10-05T09:30:10.172Z,69.98
2022-10-05T09:31:10.245Z,70.29
2022-10-05T09:32:15.586Z,70.59
2022-10-05T09:33:11.147Z,70.79
2022-10-05T09:34:10.133Z,70.79
2022-10-05T09:35:10.136Z,70.05
2022-10-05T09:36:10.111Z,70.09
2022-10-05T09:37:10.120Z,70.25
2022-10-05T09:38:10.092Z,70.18
2022-10-05T09:39:10.068Z,70.79
2022-10-05T09:40:10.131Z,71.09
2022-10-05T09:41:10.054Z,70.89
2022-10-05T09:42:10.120Z,71.20
2022-10-05T09:43:10.079Z,70.39
2022-10-05T09:44:10.021Z,70.69
2022-10-05T09:45:10.017Z,70.79
2022-10-05T09:46:10.069Z,71.20
2022-10-05T09:47:10.016Z,71.30
2022-10-05T09:48:10.191Z,71.50
2022-10-05T09:49:10.044Z,71.20
2022-10-05T09:50:10.696Z,71.47
2022-10-05T09:51:09.972Z,70.86
2022-10-05T09:52:09.976Z,70.12
2022-10-05T09:53:10.020Z,69.98
2022-10-05T09:54:19.210Z,69.78
2022-10-05T09:55:09.900Z,69.82
2022-10-05T09:56:09.888Z,69.01
2022-10-05T09:57:09.886Z,68.41
2022-10-05T09:58:09.873Z,68.10
2022-10-05T09:59:09.875Z,68.48
2022-10-05T10:00:09.976Z,68.17
2022-10-05T10:01:22.122Z,67.67
2022-10-05T10:02:10.891Z,67.74
2022-10-05T10:03:09.868Z,67.43
2022-10-05T10:04:09.800Z,67.20
2022-10-05T10:05:09.800Z,67.33
2022-10-05T10:06:09.780Z,67.63
2022-10-05T10:07:09.789Z,67.77
2022-10-05T10:08:09.758Z,67.87
2022-10-05T10:09:09.752Z,67.87
2022-10-05T10:10:09.803Z,67.77
2022-10-05T10:11:09.729Z,67.63
2022-10-05T10:12:09.722Z,67.84
2022-10-05T10:13:09.702Z,67.54
2022-10-05T10:14:09.711Z,67.33
2022-10-05T10:15:09.683Z,67.23
2022-10-05T10:16:09.742Z,67.84
2022-10-05T10:17:09.664Z,68.34
2022-10-05T10:18:09.655Z,67.94
2022-10-05T10:19:09.639Z,67.67
2022-10-05T10:20:09.738Z,68.57
2022-10-05T10:21:09.642Z,68.44
2022-10-05T10:22:09.615Z,67.77
2022-10-05T10:23:09.657Z,68.14
2022-10-05T10:24:09.591Z,68.04
2022-10-05T10:25:09.573Z,68.04
2022-10-05T10:26:09.581Z,68.04
2022-10-05T10:27:09.572Z,68.34
2022-10-05T10:28:09.617Z,67.84
2022-10-05T10:29:09.538Z,67.74
2022-10-05T10:30:09.529Z,68.34
2022-10-05T10:31:09.566Z,68.04
2022-10-05T10:32:09.510Z,68.37
2022-10-05T10:33:09.498Z,68.65
2022-10-05T10:34:09.484Z,68.04
2022-10-05T10:35:09.474Z,67.67
2022-10-05T10:36:09.474Z,68.27
2022-10-05T10:37:09.457Z,68.81
2022-10-05T10:38:09.460Z,69.01
2022-10-05T10:39:09.478Z,68.77
2022-10-05T10:40:09.412Z,68.77
2022-10-05T10:41:09.407Z,69.08
2022-10-05T10:42:09.392Z,69.18
2022-10-05T10:43:09.391Z,69.38
2022-10-05T10:44:09.389Z,68.65
2022-10-05T10:45:09.367Z,68.57
2022-10-05T10:46:09.425Z,68.57
2022-10-05T10:47:09.344Z,68.68
2022-10-05T10:48:09.332Z,68.77
2022-10-05T10:49:09.331Z,69.08
2022-10-05T10:50:09.313Z,68.95
2022-10-05T10:51:09.293Z,69.45
2022-10-05T10:52:09.288Z,68.85
2022-10-05T10:53:09.282Z,68.61
2022-10-05T10:54:09.280Z,68.91
2022-10-05T10:55:09.268Z,68.31
2022-10-05T10:56:09.240Z,68.38
2022-10-05T10:57:09.229Z,68.08
2022-10-05T10:58:13.638Z,67.94
2022-10-05T10:59:10.226Z,67.84
2022-10-05T11:00:09.233Z,68.55
2022-10-05T11:01:09.189Z,67.84
2022-10-05T11:02:09.254Z,67.14
2022-10-05T11:03:09.233Z,67.14
2022-10-05T11:04:09.149Z,67.64
2022-10-05T11:05:09.144Z,67.21
2022-10-05T11:06:09.150Z,67.07
2022-10-05T11:07:09.119Z,66.77
2022-10-05T11:08:09.109Z,65.56
2022-10-05T11:09:09.098Z,65.53
2022-10-05T11:10:09.087Z,65.84
2022-10-05T11:11:09.116Z,65.84
2022-10-05T11:12:09.087Z,65.70
2022-10-05T11:13:09.051Z,64.63
2022-10-05T11:14:09.054Z,64.93
2022-10-05T11:15:09.040Z,65.64
2022-10-05T11:16:09.124Z,65.73
2022-10-05T11:17:09.012Z,66.07
2022-10-05T11:18:09.013Z,66.34
2022-10-05T11:19:08.996Z,66.14
2022-10-05T11:20:08.986Z,66.34
2022-10-05T11:21:08.969Z,66.24
2022-10-05T11:22:08.980Z,65.94
2022-10-05T11:23:08.976Z,66.24
2022-10-05T11:24:08.942Z,66.24
2022-10-05T11:25:08.940Z,66.57
2022-10-05T11:26:08.917Z,67.47
2022-10-05T11:27:09.005Z,67.81
2022-10-05T11:28:08.958Z,67.81
2022-10-05T11:29:08.923Z,68.41
2022-10-05T11:30:08.882Z,68.55
2022-10-05T11:31:08.911Z,68.51
2022-10-05T11:32:08.853Z,68.55
2022-10-05T11:33:08.858Z,68.55
2022-10-05T11:34:08.864Z,68.65
2022-10-05T11:35:08.820Z,68.55
2022-10-05T11:36:08.851Z,68.41
2022-10-05T11:37:08.862Z,68.21
2022-10-05T11:38:08.794Z,68.31
2022-10-05T11:39:08.818Z,68.38
2022-10-05T11:40:08.773Z,67.78
2022-10-05T11:41:08.763Z,68.18
2022-10-05T11:42:08.753Z,67.81
2022-10-05T11:43:08.755Z,68.82
2022-10-05T11:44:08.729Z,68.71
2022-10-05T11:45:08.727Z,68.91
2022-10-05T11:46:08.719Z,68.82
2022-10-05T11:47:08.704Z,68.82
2022-10-05T11:48:08.687Z,68.82
2022-10-05T11:49:08.676Z,68.71
2022-10-05T11:50:08.688Z,69.02
2022-10-05T11:51:08.655Z,68.91
2022-10-05T11:52:08.642Z,69.12
2022-10-05T11:53:08.622Z,69.02
2022-10-05T11:54:08.614Z,69.72
2022-10-05T11:55:11.462Z,69.72
2022-10-05T11:56:08.623Z,69.32
2022-10-05T11:57:08.597Z,69.22
2022-10-05T11:58:08.607Z,69.45
2022-10-05T11:59:08.579Z,69.76
2022-10-05T12:00:08.567Z,69.56
2022-10-05T12:01:08.553Z,69.72
2022-10-05T12:02:08.530Z,69.35
2022-10-05T12:03:08.605Z,69.12
2022-10-05T12:04:08.640Z,68.82
2022-10-05T12:05:08.504Z,68.91
2022-10-05T12:06:08.488Z,68.68
2022-10-05T12:07:08.487Z,69.09
2022-10-05T12:08:08.470Z,68.78
2022-10-05T12:09:08.478Z,68.68
2022-10-05T12:10:08.447Z,67.88
2022-10-05T12:11:08.443Z,67.88
2022-10-05T12:12:08.431Z,68.15
2022-10-05T12:13:08.417Z,68.25
2022-10-05T12:14:08.418Z,67.94
2022-10-05T12:15:08.413Z,67.44
2022-10-05T12:16:08.422Z,67.24
2022-10-05T12:17:08.383Z,67.24
2022-10-05T12:18:08.387Z,67.24
2022-10-05T12:19:08.343Z,67.51
2022-10-05T12:20:08.342Z,67.41
2022-10-05T12:21:08.327Z,67.51
2022-10-05T12:22:08.341Z,67.18
2022-10-05T12:23:08.309Z,66.78
2022-10-05T12:24:08.295Z,66.28
2022-10-05T12:25:08.287Z,66.44
2022-10-05T12:26:08.279Z,66.14
2022-10-05T12:27:08.279Z,66.35
2022-10-05T12:28:08.318Z,65.74
2022-10-05T12:29:08.241Z,65.84
2022-10-05T12:30:08.226Z,65.84
2022-10-05T12:31:08.314Z,64.84
2022-10-05T12:32:08.204Z,64.64
2022-10-05T12:33:08.228Z,64.64
2022-10-05T12:34:08.192Z,63.84
2022-10-05T12:35:08.174Z,63.84
2022-10-05T12:36:08.200Z,64.43
2022-10-05T12:37:08.161Z,63.84
2022-10-05T12:38:08.145Z,62.73
2022-10-05T12:39:08.138Z,64.14
2022-10-05T12:40:08.146Z,63.23
2022-10-05T12:41:08.105Z,63.33
2022-10-05T12:42:08.111Z,63.43
2022-10-05T12:43:08.093Z,63.53
2022-10-05T12:44:08.117Z,63.23
2022-10-05T12:45:08.079Z,63.93
2022-10-05T12:46:08.124Z,62.73
2022-10-05T12:47:08.068Z,63.00
2022-10-05T12:48:08.031Z,62.83
2022-10-05T12:49:08.029Z,63.23
2022-10-05T12:50:08.033Z,62.83
2022-10-05T12:51:07.998Z,62.73
2022-10-05T12:52:07.990Z,62.63